Wetterdaten: Woche 18.07.11 - 24.07.11 (KW29)
Datum Zeit Temp. Innen Temp. Aussen UV X Diff Temp. Feuchte Inne Feuchte Auss Sonnenschein Luftdruck Regen ab 0,1 Wind Sonnenschein T Regendauer Windben
18.07.2011 00:00 22,6 C 16,1 C 0,1 UV-I 0,0 C 50 % 72 % 0 % 999,2 hPa 0,0 l/m 5,9 km/h (2 Bft) 0,00 h 0,00 h 10,3 km/h (2 Bft)
18.07.2011 01:00 22,4 C 15,4 C 0,1 UV-I 0,0 C 51 % 75 % 0 % 999,1 hPa 0,0 l/m 5,4 km/h (1 Bft) 0,00 h 0,00 h 9,3 km/h (2 Bft)
18.07.2011 02:00 22,2 C 15,1 C 0,1 UV-I 0,0 C 52 % 77 % 0 % 999,0 hPa 0,0 l/m 4,7 km/h (1 Bft) 0,00 h 0,00 h 7,0 km/h (2 Bft)
18.07.2011 03:00 22,2 C 15,2 C 0,1 UV-I 0,0 C 52 % 77 % 0 % 999,0 hPa 0,0 l/m 5,4 km/h (1 Bft) 0,00 h 0,00 h 7,6 km/h (2 Bft)
18.07.2011 04:00 22,0 C 14,8 C 0,1 UV-I 0,0 C 52 % 78 % 0 % 998,6 hPa 0,0 l/m 6,0 km/h (2 Bft) 0,00 h 0,00 h 9,1 km/h (2 Bft)
18.07.2011 05:00 21,9 C 14,8 C 0,1 UV-I 0,0 C 53 % 78 % 0 % 998,5 hPa 0,0 l/m 7,1 km/h (2 Bft) 0,00 h 0,00 h 8,4 km/h (2 Bft)
18.07.2011 06:00 21,8 C 15,1 C 0,3 UV-I 0,0 C 53 % 78 % 0 % 998,4 hPa 0,0 l/m 6,5 km/h (2 Bft) 0,00 h 0,00 h 9,9 km/h (2 Bft)
18.07.2011 07:00 21,9 C 15,5 C 0,6 UV-I 0,2 C 53 % 77 % 6 % 998,7 hPa 0,0 l/m 7,1 km/h (2 Bft) 0,00 h 0,00 h 11,4 km/h (2 Bft)
18.07.2011 08:00 22,0 C 16,1 C 1,5 UV-I 1,1 C 53 % 74 % 30 % 999,0 hPa 0,0 l/m 9,3 km/h (2 Bft) 0,20 h 0,00 h 11,7 km/h (2 Bft)
18.07.2011 09:00 22,1 C 17,2 C 5,0 UV-I 3,6 C 52 % 70 % 91 % 999,2 hPa 0,0 l/m 10,1 km/h (2 Bft) 0,73 h 0,00 h 13,6 km/h (3 Bft)
18.07.2011 10:00 22,3 C 18,2 C 4,3 UV-I 3,6 C 52 % 65 % 87 % 999,3 hPa 0,0 l/m 10,5 km/h (2 Bft) 0,70 h 0,00 h 16,3 km/h (3 Bft)
18.07.2011 11:00 22,6 C 18,2 C 2,2 UV-I 1,4 C 50 % 64 % 41 % 999,5 hPa 0,0 l/m 8,8 km/h (2 Bft) 0,00 h 0,00 h 10,1 km/h (2 Bft)
18.07.2011 12:00 22,6 C 18,3 C 2,1 UV-I 1,6 C 50 % 64 % 46 % 999,9 hPa 0,0 l/m 9,9 km/h (2 Bft) 0,13 h 0,00 h 13,4 km/h (3 Bft)
18.07.2011 13:00 22,7 C 18,2 C 2,7 UV-I 1,6 C 50 % 65 % 45 % 1000,5 hPa 0,0 l/m 10,1 km/h (2 Bft) 0,00 h 0,00 h 14,6 km/h (3 Bft)
18.07.2011 14:00 23,0 C 18,7 C 3,0 UV-I 2,3 C 49 % 63 % 66 % 1000,9 hPa 0,0 l/m 8,8 km/h (2 Bft) 0,23 h 0,00 h 12,2 km/h (2 Bft)
18.07.2011 15:00 23,1 C 19,1 C 3,0 UV-I 2,4 C 49 % 63 % 70 % 1001,0 hPa 0,0 l/m 7,6 km/h (2 Bft) 0,13 h 0,00 h 9,4 km/h (2 Bft)
18.07.2011 16:00 23,2 C 18,3 C 2,1 UV-I 1,3 C 49 % 64 % 38 % 1001,6 hPa 0,0 l/m 7,7 km/h (2 Bft) 0,00 h 0,00 h 10,9 km/h (2 Bft)
18.07.2011 17:00 23,4 C 18,9 C 1,9 UV-I 1,8 C 49 % 62 % 51 % 1001,8 hPa 0,0 l/m 5,8 km/h (2 Bft) 0,23 h 0,00 h 9,2 km/h (2 Bft)
18.07.2011 18:00 23,3 C 18,7 C 1,6 UV-I 1,0 C 49 % 62 % 28 % 1001,6 hPa 0,0 l/m 7,0 km/h (2 Bft) 0,00 h 0,00 h 10,0 km/h (2 Bft)
18.07.2011 19:00 23,2 C 18,6 C 0,9 UV-I 0,4 C 49 % 61 % 11 % 1001,7 hPa 0,0 l/m 8,3 km/h (2 Bft) 0,00 h 0,00 h 12,3 km/h (3 Bft)
18.07.2011 20:00 22,8 C 17,4 C 0,3 UV-I 0,0 C 49 % 64 % 0 % 1002,1 hPa 0,0 l/m 7,5 km/h (2 Bft) 0,00 h 0,00 h 11,6 km/h (2 Bft)
18.07.2011 21:00 22,5 C 16,5 C 0,1 UV-I 0,0 C 49 % 65 % 0 % 1002,5 hPa 0,0 l/m 4,1 km/h (1 Bft) 0,00 h 0,00 h 5,6 km/h (1 Bft)
18.07.2011 22:00 22,3 C 16,1 C 0,0 UV-I 0,0 C 50 % 66 % 0 % 1003,0 hPa 0,0 l/m 1,9 km/h (1 Bft) 0,00 h 0,00 h 4,3 km/h (1 Bft)
18.07.2011 23:00 22,2 C 16,0 C 0,0 UV-I 0,0 C 50 % 66 % 0 % 1003,1 hPa 0,0 l/m 2,7 km/h (1 Bft) 0,00 h 0,00 h 5,4 km/h (1 Bft)
19.07.2011 00:00 22,2 C 15,6 C 0,1 UV-I 0,0 C 50 % 69 % 0 % 1003,0 hPa 0,0 l/m 2,5 km/h (1 Bft) 0,00 h 0,00 h 4,6 km/h (1 Bft)
19.07.2011 01:00 22,0 C 15,5 C 0,1 UV-I 0,0 C 51 % 70 % 0 % 1003,0 hPa 0,0 l/m 1,5 km/h (1 Bft) 0,00 h 0,00 h 3,7 km/h (1 Bft)
19.07.2011 02:00 22,0 C 15,3 C 0,1 UV-I 0,0 C 51 % 71 % 0 % 1003,0 hPa 0,0 l/m 1,0 km/h (0 Bft) 0,00 h 0,00 h 1,8 km/h (1 Bft)
19.07.2011 03:00 22,0 C 14,3 C 0,1 UV-I 0,0 C 52 % 74 % 0 % 1002,7 hPa 0,0 l/m 1,8 km/h (1 Bft) 0,00 h 0,00 h 3,8 km/h (1 Bft)
19.07.2011 04:00 21,8 C 13,2 C 0,1 UV-I 0,0 C 52 % 77 % 0 % 1002,5 hPa 0,0 l/m 0,8 km/h (0 Bft) 0,00 h 0,00 h 1,2 km/h (1 Bft)
19.07.2011 05:00 21,6 C 11,9 C 0,1 UV-I 0,0 C 52 % 81 % 0 % 1002,4 hPa 0,0 l/m 0,6 km/h (0 Bft) 0,00 h 0,00 h 1,8 km/h (1 Bft)
19.07.2011 06:00 21,4 C 11,6 C 0,3 UV-I 0,0 C 53 % 84 % 1 % 1002,7 hPa 0,0 l/m 2,1 km/h (1 Bft) 0,00 h 0,00 h 4,2 km/h (1 Bft)
19.07.2011 07:00 21,4 C 12,9 C 0,7 UV-I 0,4 C 53 % 85 % 12 % 1002,8 hPa 0,0 l/m 2,6 km/h (1 Bft) 0,00 h 0,00 h 5,1 km/h (1 Bft)
19.07.2011 08:00 21,7 C 14,8 C 1,5 UV-I 1,6 C 53 % 82 % 45 % 1002,9 hPa 0,0 l/m 6,4 km/h (2 Bft) 0,00 h 0,00 h 8,7 km/h (2 Bft)
19.07.2011 09:00 22,0 C 16,2 C 1,6 UV-I 1,3 C 53 % 78 % 38 % 1003,4 hPa 0,0 l/m 7,8 km/h (2 Bft) 0,00 h 0,00 h 9,3 km/h (2 Bft)
19.07.2011 10:00 22,2 C 18,3 C 4,0 UV-I 4,4 C 53 % 73 % 97 % 1003,5 hPa 0,0 l/m 4,5 km/h (1 Bft) 0,97 h 0,00 h 6,3 km/h (2 Bft)
19.07.2011 11:00 22,5 C 20,2 C 4,6 UV-I 5,0 C 53 % 65 % 100 % 1003,3 hPa 0,0 l/m 6,2 km/h (2 Bft) 1,00 h 0,00 h 9,3 km/h (2 Bft)
19.07.2011 12:00 22,9 C 22,0 C 3,0 UV-I 5,4 C 52 % 57 % 99 % 1002,6 hPa 0,0 l/m 7,7 km/h (2 Bft) 0,97 h 0,00 h 12,4 km/h (3 Bft)
19.07.2011 13:00 23,3 C 22,4 C 3,6 UV-I 3,7 C 52 % 54 % 90 % 1003,0 hPa 0,0 l/m 7,1 km/h (2 Bft) 0,70 h 0,00 h 9,5 km/h (2 Bft)
19.07.2011 14:00 23,6 C 22,1 C 2,3 UV-I 1,7 C 51 % 53 % 49 % 1003,0 hPa 0,0 l/m 4,0 km/h (1 Bft) 0,00 h 0,00 h 6,2 km/h (2 Bft)
19.07.2011 15:00 23,6 C 22,1 C 2,0 UV-I 1,6 C 51 % 52 % 46 % 1003,0 hPa 0,0 l/m 1,0 km/h (0 Bft) 0,00 h 0,00 h 1,4 km/h (1 Bft)
19.07.2011 16:00 23,5 C 21,5 C 0,9 UV-I 0,3 C 51 % 55 % 8 % 1003,1 hPa 0,0 l/m 0,3 km/h (0 Bft) 0,00 h 0,00 h 1,2 km/h (1 Bft)
19.07.2011 17:00 23,5 C 20,9 C 1,0 UV-I 0,4 C 51 % 63 % 10 % 1003,3 hPa 0,0 l/m 2,0 km/h (1 Bft) 0,00 h 0,00 h 4,1 km/h (1 Bft)
19.07.2011 18:00 23,5 C 20,4 C 0,8 UV-I 0,4 C 52 % 63 % 11 % 1003,3 hPa 0,0 l/m 3,4 km/h (1 Bft) 0,00 h 0,00 h 4,8 km/h (1 Bft)
19.07.2011 19:00 23,4 C 19,3 C 0,5 UV-I 0,0 C 52 % 68 % 0 % 1003,7 hPa 0,0 l/m 5,5 km/h (1 Bft) 0,00 h 0,00 h 7,7 km/h (2 Bft)
19.07.2011 20:00 23,2 C 17,7 C 0,2 UV-I 0,0 C 54 % 78 % 0 % 1004,1 hPa 0,1 l/m 0,5 km/h (0 Bft) 0,00 h 0,00 h 1,1 km/h (0 Bft)
19.07.2011 21:00 23,0 C 16,8 C 0,1 UV-I 0,0 C 55 % 83 % 0 % 1004,3 hPa 0,0 l/m 1,6 km/h (1 Bft) 0,00 h 0,00 h 2,5 km/h (1 Bft)
19.07.2011 22:00 22,8 C 16,3 C 0,0 UV-I 0,0 C 56 % 86 % 0 % 1004,8 hPa 0,0 l/m 0,0 km/h (0 Bft) 0,00 h 0,00 h 0,2 km/h (0 Bft)
19.07.2011 23:00 22,7 C 15,9 C 0,0 UV-I 0,0 C 57 % 88 % 0 % 1004,8 hPa 0,1 l/m 0,0 km/h (0 Bft) 0,00 h 0,00 h 0,0 km/h (0 Bft)
20.07.2011 00:00 22,6 C 15,4 C 0,0 UV-I 0,0 C 57 % 89 % 0 % 1004,9 hPa 0,0 l/m 0,0 km/h (0 Bft) 0,00 h 0,00 h 0,2 km/h (0 Bft)
20.07.2011 01:00 22,4 C 15,0 C 0,0 UV-I 0,0 C 57 % 89 % 0 % 1005,0 hPa 0,0 l/m 0,0 km/h (0 Bft) 0,00 h 0,00 h 0,0 km/h (0 Bft)
20.07.2011 02:00 22,3 C 14,6 C 0,0 UV-I 0,0 C 58 % 90 % 0 % 1005,0 hPa 0,0 l/m 0,0 km/h (0 Bft) 0,00 h 0,00 h 0,0 km/h (0 Bft)
20.07.2011 03:00 22,2 C 14,4 C 0,0 UV-I 0,0 C 58 % 90 % 0 % 1005,0 hPa 0,0 l/m 0,0 km/h (0 Bft) 0,00 h 0,00 h 0,0 km/h (0 Bft)
20.07.2011 04:00 22,2 C 14,4 C 0,0 UV-I 0,0 C 58 % 91 % 0 % 1005,0 hPa 0,0 l/m 0,0 km/h (0 Bft) 0,00 h 0,00 h 0,0 km/h (0 Bft)
20.07.2011 05:00 22,1 C 14,6 C 0,0 UV-I 0,0 C 59 % 92 % 0 % 1005,5 hPa 0,0 l/m 0,0 km/h (0 Bft) 0,00 h 0,00 h 0,0 km/h (0 Bft)
20.07.2011 06:00 22,1 C 14,7 C 0,2 UV-I 0,0 C 59 % 92 % 0 % 1005,9 hPa 0,0 l/m 0,3 km/h (0 Bft) 0,00 h 0,00 h 1,3 km/h (1 Bft)
20.07.2011 07:00 22,2 C 15,0 C 0,8 UV-I 0,1 C 59 % 92 % 4 % 1006,2 hPa 0,0 l/m 0,1 km/h (0 Bft) 0,00 h 0,00 h 1,0 km/h (0 Bft)
20.07.2011 08:00 22,2 C 15,7 C 1,1 UV-I 0,9 C 59 % 92 % 24 % 1006,5 hPa 0,0 l/m 2,4 km/h (1 Bft) 0,00 h 0,00 h 4,6 km/h (1 Bft)
20.07.2011 09:00 22,3 C 16,6 C 1,3 UV-I 1,7 C 59 % 90 % 49 % 1006,9 hPa 0,0 l/m 2,4 km/h (1 Bft) 0,00 h 0,00 h 4,1 km/h (1 Bft)
20.07.2011 10:00 22,6 C 17,6 C 2,0 UV-I 2,4 C 59 % 87 % 67 % 1007,0 hPa 0,0 l/m 2,4 km/h (1 Bft) 0,23 h 0,00 h 5,0 km/h (1 Bft)
20.07.2011 11:00 23,0 C 19,6 C 3,5 UV-I 4,9 C 58 % 78 % 99 % 1007,5 hPa 0,0 l/m 4,5 km/h (1 Bft) 1,00 h 0,00 h 7,5 km/h (2 Bft)
20.07.2011 12:00 23,3 C 20,1 C 2,9 UV-I 3,4 C 57 % 72 % 92 % 1007,8 hPa 0,0 l/m 4,8 km/h (1 Bft) 0,83 h 0,00 h 7,2 km/h (2 Bft)
20.07.2011 13:00 23,5 C 20,5 C 3,3 UV-I 3,1 C 57 % 69 % 87 % 1008,2 hPa 0,0 l/m 5,9 km/h (2 Bft) 0,73 h 0,00 h 9,5 km/h (2 Bft)
20.07.2011 14:00 23,9 C 21,0 C 4,1 UV-I 3,9 C 56 % 67 % 96 % 1008,5 hPa 0,0 l/m 6,3 km/h (2 Bft) 0,97 h 0,00 h 10,3 km/h (2 Bft)
20.07.2011 15:00 24,5 C 22,0 C 4,3 UV-I 4,9 C 55 % 62 % 99 % 1009,0 hPa 0,0 l/m 5,9 km/h (2 Bft) 1,00 h 0,00 h 9,4 km/h (2 Bft)
20.07.2011 16:00 24,8 C 21,5 C 3,4 UV-I 2,9 C 54 % 61 % 82 % 1009,1 hPa 0,0 l/m 6,1 km/h (2 Bft) 0,53 h 0,00 h 9,4 km/h (2 Bft)
20.07.2011 17:00 24,9 C 21,7 C 3,4 UV-I 3,0 C 53 % 57 % 84 % 1009,2 hPa 0,0 l/m 3,6 km/h (1 Bft) 0,50 h 0,00 h 4,8 km/h (1 Bft)
20.07.2011 18:00 25,2 C 21,9 C 2,3 UV-I 3,4 C 52 % 52 % 81 % 1009,3 hPa 0,0 l/m 4,0 km/h (1 Bft) 0,60 h 0,00 h 6,4 km/h (2 Bft)
20.07.2011 19:00 25,0 C 21,0 C 1,1 UV-I 0,3 C 52 % 56 % 9 % 1009,1 hPa 0,0 l/m 2,4 km/h (1 Bft) 0,00 h 0,00 h 4,6 km/h (1 Bft)
20.07.2011 20:00 24,7 C 20,0 C 0,5 UV-I 0,0 C 53 % 68 % 0 % 1009,2 hPa 0,0 l/m 1,1 km/h (0 Bft) 0,00 h 0,00 h 1,7 km/h (1 Bft)
20.07.2011 21:00 24,3 C 18,7 C 0,1 UV-I 0,0 C 54 % 73 % 0 % 1009,3 hPa 0,0 l/m 0,1 km/h (0 Bft) 0,00 h 0,00 h 0,3 km/h (0 Bft)
20.07.2011 22:00 23,9 C 17,9 C 0,0 UV-I 0,0 C 55 % 78 % 0 % 1009,6 hPa 0,3 l/m 0,3 km/h (0 Bft) 0,00 h 0,00 h 0,9 km/h (0 Bft)
20.07.2011 23:00 23,6 C 16,8 C 0,0 UV-I 0,0 C 56 % 84 % 0 % 1009,7 hPa 0,9 l/m 0,1 km/h (0 Bft) 0,00 h 0,00 h 0,4 km/h (0 Bft)
21.07.2011 00:00 23,3 C 16,0 C 0,0 UV-I 0,0 C 58 % 87 % 0 % 1009,8 hPa 0,0 l/m 0,0 km/h (0 Bft) 0,00 h 0,00 h 0,0 km/h (0 Bft)
21.07.2011 01:00 23,1 C 15,6 C 0,0 UV-I 0,0 C 58 % 89 % 0 % 1009,8 hPa 0,1 l/m 0,0 km/h (0 Bft) 0,00 h 0,00 h 0,0 km/h (0 Bft)
21.07.2011 02:00 23,0 C 15,2 C 0,0 UV-I 0,0 C 59 % 90 % 0 % 1009,8 hPa 0,0 l/m 0,0 km/h (0 Bft) 0,00 h 0,00 h 0,0 km/h (0 Bft)
21.07.2011 03:00 22,8 C 14,5 C 0,0 UV-I 0,0 C 59 % 90 % 0 % 1009,3 hPa 0,0 l/m 0,0 km/h (0 Bft) 0,00 h 0,00 h 0,0 km/h (0 Bft)
21.07.2011 04:00 22,7 C 14,2 C 0,0 UV-I 0,0 C 59 % 91 % 0 % 1009,0 hPa 0,0 l/m 0,0 km/h (0 Bft) 0,00 h 0,00 h 0,0 km/h (0 Bft)
21.07.2011 05:00 22,6 C 14,0 C 0,0 UV-I 0,0 C 60 % 92 % 0 % 1009,0 hPa 0,0 l/m 0,0 km/h (0 Bft) 0,00 h 0,00 h 0,0 km/h (0 Bft)
21.07.2011 06:00 22,5 C 14,0 C 0,3 UV-I 0,0 C 60 % 92 % 0 % 1008,9 hPa 0,0 l/m 0,0 km/h (0 Bft) 0,00 h 0,00 h 0,0 km/h (0 Bft)
21.07.2011 07:00 22,6 C 14,6 C 0,7 UV-I 0,3 C 60 % 92 % 8 % 1008,9 hPa 0,0 l/m 0,3 km/h (0 Bft) 0,00 h 0,00 h 1,2 km/h (1 Bft)
21.07.2011 08:00 22,7 C 15,3 C 1,1 UV-I 1,6 C 60 % 93 % 46 % 1009,0 hPa 0,0 l/m 0,3 km/h (0 Bft) 0,13 h 0,00 h 1,0 km/h (0 Bft)
21.07.2011 09:00 22,8 C 16,4 C 1,6 UV-I 2,2 C 60 % 91 % 63 % 1009,3 hPa 0,0 l/m 1,1 km/h (1 Bft) 0,20 h 0,00 h 2,8 km/h (1 Bft)
21.07.2011 10:00 23,1 C 17,8 C 2,1 UV-I 3,0 C 60 % 89 % 85 % 1009,3 hPa 0,0 l/m 2,3 km/h (1 Bft) 0,60 h 0,00 h 4,3 km/h (1 Bft)
21.07.2011 11:00 23,3 C 18,2 C 1,7 UV-I 2,0 C 60 % 84 % 58 % 1009,6 hPa 0,0 l/m 4,4 km/h (1 Bft) 0,07 h 0,00 h 7,2 km/h (2 Bft)
21.07.2011 12:00 23,5 C 18,4 C 1,3 UV-I 0,2 C 59 % 83 % 5 % 1009,5 hPa 0,3 l/m 2,7 km/h (1 Bft) 0,00 h 0,00 h 5,2 km/h (1 Bft)
21.07.2011 13:00 23,6 C 18,3 C 2,4 UV-I 0,5 C 59 % 85 % 15 % 1009,6 hPa 0,1 l/m 4,8 km/h (1 Bft) 0,00 h 0,00 h 7,8 km/h (2 Bft)
21.07.2011 14:00 23,7 C 18,4 C 2,8 UV-I 2,6 C 59 % 83 % 73 % 1009,7 hPa 0,0 l/m 3,0 km/h (1 Bft) 0,40 h 0,00 h 5,5 km/h (1 Bft)
21.07.2011 15:00 24,2 C 20,4 C 4,9 UV-I 5,6 C 58 % 75 % 100 % 1009,5 hPa 0,0 l/m 2,6 km/h (1 Bft) 1,00 h 0,00 h 5,2 km/h (1 Bft)
21.07.2011 16:00 25,1 C 20,5 C 3,0 UV-I 3,8 C 56 % 68 % 63 % 1010,0 hPa 1,2 l/m 8,2 km/h (2 Bft) 0,57 h 0,00 h 12,3 km/h (3 Bft)
21.07.2011 17:00 24,9 C 16,5 C 0,3 UV-I 0,0 C 56 % 84 % 0 % 1010,1 hPa 4,1 l/m 2,2 km/h (1 Bft) 0,00 h 0,00 h 2,5 km/h (1 Bft)
21.07.2011 18:00 24,2 C 15,9 C 1,0 UV-I 0,1 C 57 % 89 % 3 % 1009,6 hPa 0,9 l/m 0,2 km/h (0 Bft) 0,00 h 0,00 h 0,4 km/h (0 Bft)
21.07.2011 19:00 23,9 C 16,5 C 1,0 UV-I 0,5 C 58 % 90 % 15 % 1009,6 hPa 0,1 l/m 0,7 km/h (0 Bft) 0,00 h 0,00 h 2,0 km/h (1 Bft)
21.07.2011 20:00 23,7 C 16,8 C 0,5 UV-I 0,1 C 59 % 90 % 2 % 1009,7 hPa 0,0 l/m 1,0 km/h (0 Bft) 0,00 h 0,00 h 1,3 km/h (1 Bft)
21.07.2011 21:00 23,5 C 16,6 C 0,1 UV-I 0,0 C 60 % 90 % 0 % 1009,8 hPa 0,2 l/m 1,1 km/h (1 Bft) 0,00 h 0,00 h 2,1 km/h (1 Bft)
21.07.2011 22:00 23,2 C 16,4 C 0,0 UV-I 0,0 C 60 % 90 % 0 % 1010,4 hPa 0,0 l/m 3,2 km/h (1 Bft) 0,00 h 0,00 h 5,2 km/h (1 Bft)
21.07.2011 23:00 23,0 C 16,1 C 0,0 UV-I 0,0 C 61 % 90 % 0 % 1010,4 hPa 0,0 l/m 0,8 km/h (0 Bft) 0,00 h 0,00 h 1,1 km/h (1 Bft)
22.07.2011 00:00 22,8 C 15,6 C 0,0 UV-I 0,0 C 61 % 91 % 0 % 1010,5 hPa 0,0 l/m 0,1 km/h (0 Bft) 0,00 h 0,00 h 0,3 km/h (0 Bft)
22.07.2011 01:00 22,8 C 15,4 C 0,0 UV-I 0,0 C 62 % 91 % 0 % 1010,5 hPa 0,0 l/m 1,6 km/h (1 Bft) 0,00 h 0,00 h 3,5 km/h (1 Bft)
22.07.2011 02:00 22,6 C 15,2 C 0,0 UV-I 0,0 C 62 % 91 % 0 % 1010,8 hPa 0,0 l/m 2,9 km/h (1 Bft) 0,00 h 0,00 h 5,2 km/h (1 Bft)
22.07.2011 03:00 22,5 C 14,6 C 0,0 UV-I 0,0 C 62 % 90 % 0 % 1010,7 hPa 0,0 l/m 4,0 km/h (1 Bft) 0,00 h 0,00 h 6,0 km/h (2 Bft)
22.07.2011 04:00 22,3 C 13,7 C 0,0 UV-I 0,0 C 62 % 90 % 0 % 1010,7 hPa 0,0 l/m 3,2 km/h (1 Bft) 0,00 h 0,00 h 5,0 km/h (1 Bft)
22.07.2011 05:00 22,2 C 12,7 C 0,0 UV-I 0,0 C 62 % 91 % 0 % 1010,9 hPa 0,0 l/m 0,2 km/h (0 Bft) 0,00 h 0,00 h 0,2 km/h (0 Bft)
22.07.2011 06:00 22,0 C 12,3 C 0,2 UV-I 0,0 C 61 % 92 % 0 % 1011,0 hPa 0,0 l/m 0,0 km/h (0 Bft) 0,00 h 0,00 h 0,2 km/h (0 Bft)
22.07.2011 07:00 21,9 C 12,7 C 0,7 UV-I 0,0 C 61 % 92 % 1 % 1011,3 hPa 0,0 l/m 1,2 km/h (1 Bft) 0,00 h 0,00 h 2,6 km/h (1 Bft)
22.07.2011 08:00 22,0 C 14,3 C 2,0 UV-I 2,5 C 61 % 90 % 55 % 1011,3 hPa 0,0 l/m 5,3 km/h (1 Bft) 0,50 h 0,00 h 7,4 km/h (2 Bft)
22.07.2011 09:00 22,2 C 15,6 C 1,9 UV-I 2,4 C 61 % 82 % 65 % 1011,7 hPa 0,0 l/m 6,7 km/h (2 Bft) 0,33 h 0,00 h 9,0 km/h (2 Bft)
22.07.2011 10:00 22,4 C 15,0 C 1,0 UV-I 0,5 C 60 % 79 % 15 % 1012,1 hPa 0,0 l/m 6,0 km/h (2 Bft) 0,00 h 0,00 h 9,1 km/h (2 Bft)
22.07.2011 11:00 22,6 C 15,9 C 3,2 UV-I 3,7 C 59 % 75 % 84 % 1012,0 hPa 0,0 l/m 3,7 km/h (1 Bft) 0,67 h 0,00 h 6,0 km/h (2 Bft)
22.07.2011 12:00 22,9 C 17,2 C 2,5 UV-I 3,8 C 57 % 70 % 72 % 1011,9 hPa 0,0 l/m 5,3 km/h (1 Bft) 0,53 h 0,00 h 9,1 km/h (2 Bft)
22.07.2011 13:00 23,1 C 17,6 C 2,6 UV-I 2,8 C 57 % 68 % 78 % 1011,8 hPa 0,0 l/m 5,9 km/h (2 Bft) 0,47 h 0,00 h 9,4 km/h (2 Bft)
22.07.2011 14:00 23,4 C 18,5 C 3,7 UV-I 3,6 C 56 % 60 % 79 % 1011,7 hPa 0,0 l/m 6,9 km/h (2 Bft) 0,67 h 0,00 h 11,1 km/h (2 Bft)
22.07.2011 15:00 24,1 C 19,3 C 2,9 UV-I 2,8 C 54 % 55 % 67 % 1011,8 hPa 0,0 l/m 9,9 km/h (2 Bft) 0,53 h 0,00 h 15,1 km/h (3 Bft)
22.07.2011 16:00 24,4 C 18,8 C 3,4 UV-I 2,4 C 53 % 58 % 56 % 1012,0 hPa 0,0 l/m 6,6 km/h (2 Bft) 0,40 h 0,00 h 9,2 km/h (2 Bft)
22.07.2011 17:00 24,4 C 18,5 C 2,3 UV-I 1,6 C 52 % 57 % 47 % 1011,7 hPa 0,0 l/m 7,0 km/h (2 Bft) 0,00 h 0,00 h 9,2 km/h (2 Bft)
22.07.2011 18:00 24,4 C 18,1 C 1,6 UV-I 1,7 C 52 % 57 % 47 % 1011,8 hPa 0,0 l/m 8,9 km/h (2 Bft) 0,20 h 0,00 h 13,9 km/h (3 Bft)
22.07.2011 19:00 24,1 C 17,8 C 1,0 UV-I 0,2 C 51 % 55 % 5 % 1011,5 hPa 0,0 l/m 7,8 km/h (2 Bft) 0,00 h 0,00 h 13,4 km/h (3 Bft)
22.07.2011 20:00 23,8 C 16,8 C 0,3 UV-I 0,0 C 51 % 61 % 0 % 1011,8 hPa 0,0 l/m 5,0 km/h (1 Bft) 0,00 h 0,00 h 6,6 km/h (2 Bft)
22.07.2011 21:00 23,3 C 15,9 C 0,1 UV-I 0,0 C 52 % 63 % 0 % 1011,9 hPa 0,0 l/m 3,6 km/h (1 Bft) 0,00 h 0,00 h 6,5 km/h (2 Bft)
22.07.2011 22:00 23,0 C 14,8 C 0,0 UV-I 0,0 C 53 % 69 % 0 % 1012,2 hPa 0,0 l/m 0,9 km/h (0 Bft) 0,00 h 0,00 h 1,0 km/h (0 Bft)
22.07.2011 23:00 22,6 C 14,1 C 0,0 UV-I 0,0 C 54 % 73 % 0 % 1012,4 hPa 0,0 l/m 1,1 km/h (1 Bft) 0,00 h 0,00 h 2,6 km/h (1 Bft)
23.07.2011 00:00 22,4 C 13,9 C 0,0 UV-I 0,0 C 54 % 75 % 0 % 1012,1 hPa 0,0 l/m 2,3 km/h (1 Bft) 0,00 h 0,00 h 4,7 km/h (1 Bft)
23.07.2011 01:00 22,3 C 13,4 C 0,0 UV-I 0,0 C 54 % 77 % 0 % 1012,1 hPa 0,0 l/m 1,5 km/h (1 Bft) 0,00 h 0,00 h 2,1 km/h (1 Bft)
23.07.2011 02:00 22,1 C 12,6 C 0,0 UV-I 0,0 C 54 % 81 % 0 % 1011,6 hPa 0,0 l/m 2,2 km/h (1 Bft) 0,00 h 0,00 h 5,9 km/h (2 Bft)
23.07.2011 03:00 21,9 C 11,9 C 0,0 UV-I 0,0 C 55 % 84 % 0 % 1011,3 hPa 0,0 l/m 1,2 km/h (1 Bft) 0,00 h 0,00 h 3,6 km/h (1 Bft)
23.07.2011 04:00 21,7 C 11,2 C 0,0 UV-I 0,0 C 55 % 86 % 0 % 1010,9 hPa 0,0 l/m 1,3 km/h (1 Bft) 0,00 h 0,00 h 2,7 km/h (1 Bft)
23.07.2011 05:00 21,6 C 10,6 C 0,0 UV-I 0,0 C 55 % 87 % 0 % 1010,6 hPa 0,0 l/m 1,2 km/h (1 Bft) 0,00 h 0,00 h 3,4 km/h (1 Bft)
23.07.2011 06:00 21,5 C 10,5 C 0,3 UV-I 0,0 C 55 % 88 % 0 % 1010,5 hPa 0,0 l/m 2,1 km/h (1 Bft) 0,00 h 0,00 h 4,4 km/h (1 Bft)
23.07.2011 07:00 21,4 C 11,1 C 0,8 UV-I 0,0 C 54 % 88 % 0 % 1010,2 hPa 0,0 l/m 2,7 km/h (1 Bft) 0,00 h 0,00 h 5,3 km/h (1 Bft)
23.07.2011 08:00 21,5 C 12,9 C 1,5 UV-I 2,6 C 54 % 85 % 51 % 1010,2 hPa 0,0 l/m 3,8 km/h (1 Bft) 0,43 h 0,00 h 7,3 km/h (2 Bft)
23.07.2011 09:00 21,7 C 14,8 C 2,5 UV-I 3,4 C 54 % 76 % 83 % 1009,9 hPa 0,0 l/m 6,5 km/h (2 Bft) 0,63 h 0,00 h 9,9 km/h (2 Bft)
23.07.2011 10:00 22,0 C 15,0 C 1,8 UV-I 1,9 C 53 % 75 % 53 % 1010,0 hPa 0,0 l/m 5,1 km/h (1 Bft) 0,00 h 0,00 h 9,0 km/h (2 Bft)
23.07.2011 11:00 22,2 C 14,9 C 1,7 UV-I 1,3 C 52 % 75 % 38 % 1009,8 hPa 0,0 l/m 6,1 km/h (2 Bft) 0,00 h 0,00 h 8,8 km/h (2 Bft)
23.07.2011 12:00 22,3 C 15,6 C 3,6 UV-I 3,3 C 51 % 71 % 84 % 1009,3 hPa 0,0 l/m 8,1 km/h (2 Bft) 0,37 h 0,00 h 9,9 km/h (2 Bft)
23.07.2011 13:00 22,5 C 15,2 C 1,1 UV-I 1,0 C 50 % 73 % 24 % 1009,1 hPa 0,0 l/m 5,7 km/h (1 Bft) 0,10 h 0,00 h 5,4 km/h (1 Bft)
23.07.2011 14:00 22,6 C 15,7 C 3,3 UV-I 2,7 C 51 % 73 % 74 % 1008,8 hPa 0,0 l/m 6,1 km/h (2 Bft) 0,60 h 0,00 h 9,0 km/h (2 Bft)
23.07.2011 15:00 23,3 C 17,3 C 4,9 UV-I 4,2 C 49 % 62 % 94 % 1009,0 hPa 0,0 l/m 7,5 km/h (2 Bft) 0,83 h 0,00 h 9,4 km/h (2 Bft)
23.07.2011 16:00 24,0 C 18,1 C 4,5 UV-I 3,6 C 47 % 59 % 89 % 1008,9 hPa 0,0 l/m 7,9 km/h (2 Bft) 0,67 h 0,00 h 11,6 km/h (2 Bft)
23.07.2011 17:00 24,1 C 17,7 C 2,1 UV-I 1,9 C 47 % 61 % 53 % 1008,7 hPa 0,0 l/m 6,7 km/h (2 Bft) 0,23 h 0,00 h 12,2 km/h (3 Bft)
23.07.2011 18:00 23,7 C 16,7 C 1,2 UV-I 0,5 C 48 % 63 % 16 % 1008,4 hPa 0,0 l/m 6,5 km/h (2 Bft) 0,00 h 0,00 h 11,1 km/h (2 Bft)
23.07.2011 19:00 23,4 C 16,4 C 1,1 UV-I 0,4 C 49 % 63 % 11 % 1008,3 hPa 0,0 l/m 7,1 km/h (2 Bft) 0,00 h 0,00 h 11,2 km/h (2 Bft)
23.07.2011 20:00 23,0 C 14,7 C 0,4 UV-I 0,0 C 49 % 68 % 0 % 1008,6 hPa 0,0 l/m 8,3 km/h (2 Bft) 0,00 h 0,00 h 12,6 km/h (3 Bft)
23.07.2011 21:00 22,6 C 13,7 C 0,1 UV-I 0,0 C 50 % 72 % 0 % 1008,6 hPa 0,0 l/m 4,9 km/h (1 Bft) 0,00 h 0,00 h 7,6 km/h (2 Bft)
23.07.2011 22:00 22,2 C 13,0 C 0,0 UV-I 0,0 C 50 % 74 % 0 % 1008,9 hPa 0,0 l/m 3,7 km/h (1 Bft) 0,00 h 0,00 h 6,1 km/h (2 Bft)
23.07.2011 23:00 21,8 C 13,0 C 0,0 UV-I 0,0 C 51 % 75 % 0 % 1008,4 hPa 0,0 l/m 4,6 km/h (1 Bft) 0,00 h 0,00 h 8,6 km/h (2 Bft)
24.07.2011 00:00 21,6 C 12,8 C 0,1 UV-I 0,0 C 51 % 73 % 0 % 1008,1 hPa 0,0 l/m 4,5 km/h (1 Bft) 0,00 h 0,00 h 7,6 km/h (2 Bft)
24.07.2011 01:00 21,4 C 12,1 C 0,0 UV-I 0,0 C 50 % 78 % 0 % 1007,6 hPa 0,1 l/m 3,4 km/h (1 Bft) 0,00 h 0,00 h 6,3 km/h (2 Bft)
24.07.2011 02:00 21,2 C 11,5 C 0,0 UV-I 0,0 C 51 % 84 % 0 % 1007,0 hPa 0,2 l/m 5,2 km/h (1 Bft) 0,00 h 0,00 h 7,9 km/h (2 Bft)
24.07.2011 03:00 20,9 C 11,2 C 0,1 UV-I 0,0 C 52 % 87 % 0 % 1006,6 hPa 1,2 l/m 6,4 km/h (2 Bft) 0,00 h 0,00 h 10,7 km/h (2 Bft)
24.07.2011 04:00 20,7 C 10,8 C 0,1 UV-I 0,0 C 53 % 89 % 0 % 1006,5 hPa 3,3 l/m 6,2 km/h (2 Bft) 0,00 h 0,00 h 9,3 km/h (2 Bft)
24.07.2011 05:00 20,5 C 10,9 C 0,1 UV-I 0,0 C 54 % 91 % 0 % 1006,2 hPa 2,5 l/m 4,8 km/h (1 Bft) 0,00 h 0,00 h 7,3 km/h (2 Bft)
24.07.2011 06:00 20,6 C 11,2 C 0,1 UV-I 0,0 C 55 % 92 % 0 % 1006,1 hPa 2,8 l/m 3,3 km/h (1 Bft) 0,00 h 0,00 h 5,4 km/h (1 Bft)
24.07.2011 07:00 20,5 C 11,6 C 0,2 UV-I 0,0 C 56 % 92 % 0 % 1006,1 hPa 2,4 l/m 4,8 km/h (1 Bft) 0,00 h 0,00 h 7,8 km/h (2 Bft)
24.07.2011 08:00 20,4 C 12,1 C 0,4 UV-I 0,0 C 57 % 93 % 0 % 1005,9 hPa 3,2 l/m 5,5 km/h (1 Bft) 0,00 h 0,00 h 8,7 km/h (2 Bft)
24.07.2011 09:00 20,5 C 12,5 C 0,6 UV-I 0,0 C 57 % 92 % 0 % 1006,0 hPa 0,4 l/m 8,0 km/h (2 Bft) 0,00 h 0,00 h 12,0 km/h (2 Bft)
24.07.2011 10:00 20,5 C 13,1 C 0,8 UV-I 0,0 C 58 % 92 % 1 % 1006,3 hPa 0,1 l/m 6,8 km/h (2 Bft) 0,00 h 0,00 h 9,4 km/h (2 Bft)
24.07.2011 11:00 20,6 C 13,4 C 1,1 UV-I 0,2 C 58 % 91 % 5 % 1006,2 hPa 0,1 l/m 6,2 km/h (2 Bft) 0,00 h 0,00 h 8,7 km/h (2 Bft)
24.07.2011 12:00 20,8 C 14,1 C 1,6 UV-I 0,7 C 58 % 89 % 20 % 1006,2 hPa 0,0 l/m 7,1 km/h (2 Bft) 0,00 h 0,00 h 9,9 km/h (2 Bft)
24.07.2011 13:00 20,9 C 14,4 C 1,5 UV-I 0,8 C 57 % 86 % 24 % 1006,7 hPa 0,0 l/m 6,3 km/h (2 Bft) 0,00 h 0,00 h 8,9 km/h (2 Bft)
24.07.2011 14:00 21,0 C 14,3 C 1,3 UV-I 0,1 C 57 % 83 % 2 % 1006,9 hPa 0,2 l/m 6,4 km/h (2 Bft) 0,00 h 0,00 h 9,7 km/h (2 Bft)
24.07.2011 15:00 21,0 C 13,9 C 1,6 UV-I 0,0 C 57 % 85 % 0 % 1007,7 hPa 0,5 l/m 3,6 km/h (1 Bft) 0,00 h 0,00 h 6,7 km/h (2 Bft)
24.07.2011 16:00 21,2 C 13,8 C 1,5 UV-I 0,0 C 57 % 86 % 0 % 1007,9 hPa 0,2 l/m 4,9 km/h (1 Bft) 0,00 h 0,00 h 8,6 km/h (2 Bft)
24.07.2011 17:00 21,2 C 13,4 C 1,3 UV-I 0,0 C 57 % 87 % 0 % 1008,3 hPa 0,6 l/m 3,1 km/h (1 Bft) 0,00 h 0,00 h 6,7 km/h (2 Bft)
24.07.2011 18:00 21,1 C 13,2 C 0,7 UV-I 0,0 C 57 % 88 % 0 % 1007,9 hPa 0,4 l/m 2,8 km/h (1 Bft) 0,00 h 0,00 h 5,4 km/h (1 Bft)
24.07.2011 19:00 20,9 C 12,8 C 0,4 UV-I 0,0 C 57 % 89 % 0 % 1008,2 hPa 1,4 l/m 1,1 km/h (1 Bft) 0,00 h 0,00 h 2,8 km/h (1 Bft)
24.07.2011 20:00 20,7 C 12,7 C 0,2 UV-I 0,0 C 58 % 90 % 0 % 1008,4 hPa 0,2 l/m 1,2 km/h (1 Bft) 0,00 h 0,00 h 2,3 km/h (1 Bft)
24.07.2011 21:00 20,6 C 12,4 C 0,0 UV-I 0,0 C 58 % 91 % 0 % 1008,8 hPa 0,5 l/m 1,7 km/h (1 Bft) 0,00 h 0,00 h 3,1 km/h (1 Bft)
24.07.2011 22:00 20,5 C 12,1 C 0,0 UV-I 0,0 C 58 % 91 % 0 % 1009,2 hPa 1,0 l/m 0,6 km/h (0 Bft) 0,00 h 0,00 h 1,2 km/h (1 Bft)
24.07.2011 23:00 20,2 C 11,9 C 0,0 UV-I 0,0 C 59 % 92 % 0 % 1008,9 hPa 0,5 l/m 0,1 km/h (0 Bft) 0,00 h 0,00 h 0,3 km/h (0 Bft)
Min-Datum _ 24.07.11 23.07.11 18.07.11 18.07.11 23.07.11 20.07.11 18.07.11 18.07.11 - 19.07.11 - - 18.07.11
_ Min-Zeit 23:04 05:46 21:48 00:00 16:12 18:32 00:00 05:44 - 02:42 - - 00:24
Minimum _ 20,2 C 10,4 C 0,0 UV-I 0,0 C 47 % 50 % 0 % 998,2 hPa - 0,0 km/h (0 Bft) - - 0,0 km/h (0 Bft)
Max-Datum _ 20.07.11 19.07.11 23.07.11 21.07.11 22.07.11 21.07.11 18.07.11 22.07.11 21.07.11 18.07.11 18.07.11 18.07.11 18.07.11
_ Max-Zeit 18:14 13:28 16:28 16:04 00:40 08:10 09:00 23:24 17:02 10:42 08:48 00:00 13:42
Maximum _ 25,3 C 22,8 C 8,4 UV-I 7,5 C 62 % 93 % 100 % 1012,7 hPa 4,1 l/m 14,5 km/h
O-NO (3 Bft)
0,03 h 0,00 h 38,0 km/h
SO (5 Bft)
Durchschnitt _ 22,6 C 15,9 C 1,1 UV-I 1,0 C 55 % 78 % 24 % 1007,0 hPa #30,3 l/m 3,9 km/h (1 Bft) #23:32 h #0 min. 6,1 km/h (2 Bft)
© 2012 W. Hausmann